createdAt,value
2022-09-17T00:00:27.000Z,82.36
2022-09-17T00:01:27.000Z,82.40
2022-09-17T00:02:27.000Z,82.60
2022-09-17T00:03:27.000Z,82.60
2022-09-17T00:04:27.000Z,82.70
2022-09-17T00:05:27.000Z,82.81
2022-09-17T00:06:27.000Z,82.70
2022-09-17T00:07:27.000Z,82.91
2022-09-17T00:08:27.000Z,83.01
2022-09-17T00:09:27.000Z,83.11
2022-09-17T00:10:27.000Z,83.01
2022-09-17T00:11:27.000Z,83.11
2022-09-17T00:12:27.000Z,83.01
2022-09-17T00:13:27.000Z,83.18
2022-09-17T00:14:27.000Z,83.07
2022-09-17T00:15:27.000Z,83.07
2022-09-17T00:16:27.000Z,83.07
2022-09-17T00:17:27.000Z,83.07
2022-09-17T00:18:27.000Z,82.87
2022-09-17T00:19:27.000Z,82.97
2022-09-17T00:20:27.000Z,82.67
2022-09-17T00:21:27.000Z,82.67
2022-09-17T00:22:27.000Z,82.87
2022-09-17T00:23:27.000Z,82.73
2022-09-17T00:24:27.000Z,82.83
2022-09-17T00:25:27.000Z,82.73
2022-09-17T00:26:27.000Z,82.73
2022-09-17T00:27:27.000Z,82.73
2022-09-17T00:28:27.000Z,82.73
2022-09-17T00:29:27.000Z,82.63
2022-09-17T00:30:27.000Z,82.53
2022-09-17T00:31:27.000Z,82.53
2022-09-17T00:32:27.000Z,82.63
2022-09-17T00:33:27.000Z,82.83
2022-09-17T00:34:27.000Z,82.63
2022-09-17T00:35:27.000Z,82.53
2022-09-17T00:36:27.000Z,82.63
2022-09-17T00:37:27.000Z,82.53
2022-09-17T00:38:27.000Z,82.93
2022-09-17T00:39:27.000Z,82.53
2022-09-17T00:40:27.000Z,82.53
2022-09-17T00:41:27.000Z,82.42
2022-09-17T00:42:27.000Z,82.53
2022-09-17T00:43:27.000Z,82.42
2022-09-17T00:44:27.000Z,82.42
2022-09-17T00:45:27.000Z,82.32
2022-09-17T00:46:26.000Z,82.12
2022-09-17T00:47:26.000Z,82.28
2022-09-17T00:48:26.000Z,82.18
2022-09-17T00:49:26.000Z,82.28
2022-09-17T00:50:26.000Z,82.28
2022-09-17T00:51:26.000Z,81.98
2022-09-17T00:52:26.000Z,81.98
2022-09-17T00:53:26.000Z,82.18
2022-09-17T00:53:26.000Z,82.18
2022-09-17T00:54:26.000Z,82.18
2022-09-17T00:54:26.000Z,82.18
2022-09-17T00:55:26.000Z,82.18
2022-09-17T00:55:26.000Z,82.18
2022-09-17T00:56:26.000Z,82.28
2022-09-17T00:56:26.000Z,82.28
2022-09-17T00:57:26.000Z,82.08
2022-09-17T00:57:26.000Z,82.08
2022-09-17T00:58:26.000Z,82.08
2022-09-17T00:59:26.000Z,82.08
2022-09-17T01:00:26.000Z,82.28
2022-09-17T01:01:26.000Z,82.18
2022-09-17T01:02:26.000Z,81.98
2022-09-17T01:03:26.000Z,82.28
2022-09-17T01:04:26.000Z,82.39
2022-09-17T01:05:26.000Z,82.28
2022-09-17T01:06:26.000Z,82.49
2022-09-17T01:07:26.000Z,82.39
2022-09-17T01:08:26.000Z,82.39
2022-09-17T01:09:26.000Z,82.39
2022-09-17T01:10:26.000Z,82.18
2022-09-17T01:11:26.000Z,82.18
2022-09-17T01:12:26.000Z,82.39
2022-09-17T01:13:26.000Z,82.14
2022-09-17T01:14:26.000Z,82.39
2022-09-17T01:15:26.000Z,82.28
2022-09-17T01:16:26.000Z,82.04
2022-09-17T01:17:26.000Z,82.14
2022-09-17T01:18:26.000Z,82.14
2022-09-17T01:19:26.000Z,82.35
2022-09-17T01:20:26.000Z,82.35
2022-09-17T01:21:26.000Z,82.35
2022-09-17T01:22:26.000Z,82.55
2022-09-17T01:23:26.000Z,82.45
2022-09-17T01:24:26.000Z,82.24
2022-09-17T01:25:26.000Z,82.14
2022-09-17T01:26:26.000Z,82.35
2022-09-17T01:27:26.000Z,82.55
2022-09-17T01:28:26.000Z,82.35
2022-09-17T01:29:26.000Z,82.45
2022-09-17T01:30:26.000Z,82.65
2022-09-17T01:31:26.000Z,82.55
2022-09-17T01:32:26.000Z,82.55
2022-09-17T01:33:26.000Z,82.65
2022-09-17T01:34:26.000Z,82.65
2022-09-17T01:35:26.000Z,82.75
2022-09-17T01:36:26.000Z,82.96
2022-09-17T01:37:26.000Z,82.96
2022-09-17T01:38:26.000Z,82.96
2022-09-17T01:39:26.000Z,82.96
2022-09-17T01:40:26.000Z,82.96
2022-09-17T01:41:26.000Z,83.06
2022-09-17T01:42:26.000Z,83.06
2022-09-17T01:43:26.000Z,83.16
2022-09-17T01:44:26.000Z,82.96
2022-09-17T01:45:26.000Z,83.06
2022-09-17T01:46:26.000Z,82.96
2022-09-17T01:47:26.000Z,83.16
2022-09-17T01:48:26.000Z,83.06
2022-09-17T01:49:26.000Z,83.06
2022-09-17T01:50:26.000Z,83.06
2022-09-17T01:51:26.000Z,83.16
2022-09-17T01:52:26.000Z,83.06
2022-09-17T01:53:26.000Z,83.16
2022-09-17T01:54:26.000Z,83.06
2022-09-17T01:55:26.000Z,83.26
2022-09-17T01:56:26.000Z,83.16
2022-09-17T01:57:26.000Z,83.37
2022-09-17T01:58:26.000Z,83.16
2022-09-17T01:59:25.000Z,83.06
2022-09-17T02:00:25.000Z,83.26
2022-09-17T02:01:25.000Z,83.37
2022-09-17T02:02:25.000Z,83.16
2022-09-17T02:03:25.000Z,83.16
2022-09-17T02:04:25.000Z,83.06
2022-09-17T02:05:25.000Z,83.06
2022-09-17T02:06:25.000Z,83.06
2022-09-17T02:07:25.000Z,83.16
2022-09-17T02:08:25.000Z,83.26
2022-09-17T02:09:25.000Z,83.47
2022-09-17T02:10:25.000Z,83.06
2022-09-17T02:11:25.000Z,83.37
2022-09-17T02:12:25.000Z,83.57
2022-09-17T02:13:25.000Z,83.57
2022-09-17T02:14:25.000Z,83.47
2022-09-17T02:15:25.000Z,83.47
2022-09-17T02:16:25.000Z,83.47
2022-09-17T02:17:25.000Z,83.57
2022-09-17T02:18:25.000Z,83.57
2022-09-17T02:19:25.000Z,83.67
2022-09-17T02:20:25.000Z,83.57
2022-09-17T02:21:25.000Z,83.67
2022-09-17T02:22:25.000Z,83.87
2022-09-17T02:23:25.000Z,83.98
2022-09-17T02:24:25.000Z,83.98
2022-09-17T02:25:25.000Z,84.08
2022-09-17T02:26:25.000Z,84.08
2022-09-17T02:27:25.000Z,84.28
2022-09-17T02:28:25.000Z,83.87
2022-09-17T02:29:25.000Z,84.08
2022-09-17T02:30:25.000Z,84.08
2022-09-17T02:31:25.000Z,84.28
2022-09-17T02:32:25.000Z,84.18
2022-09-17T02:33:25.000Z,83.87
2022-09-17T02:34:25.000Z,84.08
2022-09-17T02:35:25.000Z,83.87
2022-09-17T02:36:25.000Z,84.18
2022-09-17T02:37:25.000Z,84.08
2022-09-17T02:38:25.000Z,83.87
2022-09-17T02:39:25.000Z,83.98
2022-09-17T02:40:25.000Z,84.08
2022-09-17T02:41:25.000Z,83.98
2022-09-17T02:42:25.000Z,84.28
2022-09-17T02:43:25.000Z,84.49
2022-09-17T02:44:25.000Z,84.59
2022-09-17T02:45:25.000Z,84.49
2022-09-17T02:46:25.000Z,84.80
2022-09-17T02:47:25.000Z,84.94
2022-09-17T02:48:25.000Z,85.04
2022-09-17T02:49:25.000Z,84.94
2022-09-17T02:50:25.000Z,85.35
2022-09-17T02:51:25.000Z,85.35
2022-09-17T02:52:25.000Z,85.24
2022-09-17T02:53:25.000Z,85.24
2022-09-17T02:54:25.000Z,85.45
2022-09-17T02:55:25.000Z,85.45
2022-09-17T02:56:25.000Z,85.45
2022-09-17T02:57:25.000Z,85.24
2022-09-17T02:58:25.000Z,85.45
2022-09-17T02:59:25.000Z,85.45
2022-09-17T03:00:25.000Z,85.65
2022-09-17T03:01:25.000Z,85.86
2022-09-17T03:02:25.000Z,86.06
2022-09-17T03:03:25.000Z,85.96
2022-09-17T03:04:25.000Z,86.16
2022-09-17T03:05:25.000Z,86.16
2022-09-17T03:06:25.000Z,86.36
2022-09-17T03:07:25.000Z,86.88
2022-09-17T03:08:25.000Z,87.29
2022-09-17T03:09:25.000Z,87.84
2022-09-17T03:10:25.000Z,88.24
2022-09-17T03:11:24.000Z,88.55
2022-09-17T03:12:24.000Z,88.35
2022-09-17T03:13:24.000Z,88.14
2022-09-17T03:14:24.000Z,87.73
2022-09-17T03:15:24.000Z,88.14
2022-09-17T03:16:24.000Z,88.04
2022-09-17T03:17:24.000Z,88.24
2022-09-17T03:18:24.000Z,88.24
2022-09-17T03:19:24.000Z,88.14
2022-09-17T03:20:24.000Z,88.14
2022-09-17T03:21:24.000Z,87.94
2022-09-17T03:22:24.000Z,88.04
2022-09-17T03:23:24.000Z,88.14
2022-09-17T03:24:24.000Z,88.04
2022-09-17T03:25:24.000Z,88.14
2022-09-17T03:26:24.000Z,88.45
2022-09-17T03:27:24.000Z,88.55
2022-09-17T03:28:24.000Z,88.76
2022-09-17T03:29:24.000Z,88.55
2022-09-17T03:30:24.000Z,88.76
2022-09-17T03:31:24.000Z,88.55
2022-09-17T03:32:24.000Z,88.65
2022-09-17T03:33:24.000Z,88.76
2022-09-17T03:34:24.000Z,88.65
2022-09-17T03:35:24.000Z,88.85
2022-09-17T03:36:24.000Z,88.96
2022-09-17T03:37:24.000Z,89.06
2022-09-17T03:38:24.000Z,89.06
2022-09-17T03:39:24.000Z,89.67
2022-09-17T03:40:24.000Z,89.78
2022-09-17T03:41:24.000Z,90.59
2022-09-17T03:42:24.000Z,91.00
2022-09-17T03:43:24.000Z,91.20
2022-09-17T03:44:24.000Z,91.20
2022-09-17T03:45:24.000Z,91.31
2022-09-17T03:46:24.000Z,91.35
2022-09-17T03:47:24.000Z,91.15
2022-09-17T03:48:24.000Z,91.46
2022-09-17T03:49:24.000Z,91.46
2022-09-17T03:50:24.000Z,91.66
2022-09-17T03:51:24.000Z,91.35
2022-09-17T03:52:24.000Z,91.66
2022-09-17T03:53:24.000Z,92.07
2022-09-17T03:54:24.000Z,92.47
2022-09-17T03:55:24.000Z,92.99
2022-09-17T03:56:24.000Z,93.80
2022-09-17T03:57:24.000Z,94.42
2022-09-17T03:58:24.000Z,94.93
2022-09-17T03:59:24.000Z,95.23
2022-09-17T04:00:24.000Z,96.05
2022-09-17T04:01:24.000Z,96.46
2022-09-17T04:02:24.000Z,97.02
2022-09-17T04:03:24.000Z,97.22
2022-09-17T04:04:24.000Z,97.83
2022-09-17T04:05:24.000Z,98.04
2022-09-17T04:06:24.000Z,98.35
2022-09-17T04:07:24.000Z,98.55
2022-09-17T04:08:24.000Z,98.86
2022-09-17T04:09:24.000Z,98.90
2022-09-17T04:10:24.000Z,99.01
2022-09-17T04:11:24.000Z,99.41
2022-09-17T04:12:24.000Z,99.62
2022-09-17T04:13:24.000Z,99.72
2022-09-17T04:14:24.000Z,99.82
2022-09-17T04:15:24.000Z,99.82
2022-09-17T04:16:24.000Z,99.72
2022-09-17T04:17:24.000Z,99.82
2022-09-17T04:18:24.000Z,99.93
2022-09-17T04:19:24.000Z,99.99
2022-09-17T04:20:24.000Z,99.99
2022-09-17T04:21:24.000Z,99.99
2022-09-17T04:22:24.000Z,99.99
2022-09-17T04:23:24.000Z,99.99
2022-09-17T04:24:23.000Z,99.99
2022-09-17T04:25:23.000Z,99.99
2022-09-17T04:26:23.000Z,99.99
2022-09-17T04:27:23.000Z,99.99
2022-09-17T04:28:23.000Z,99.99
2022-09-17T04:29:23.000Z,99.99
2022-09-17T04:30:23.000Z,99.99
2022-09-17T04:31:23.000Z,99.99
2022-09-17T04:32:23.000Z,99.99
2022-09-17T04:33:23.000Z,99.99
2022-09-17T04:34:23.000Z,99.99
2022-09-17T04:35:23.000Z,99.99
2022-09-17T04:36:23.000Z,99.99
2022-09-17T04:37:23.000Z,99.99
2022-09-17T04:38:23.000Z,99.99
2022-09-17T04:39:23.000Z,99.99
2022-09-17T04:40:23.000Z,99.99
2022-09-17T04:41:23.000Z,99.99
2022-09-17T04:42:23.000Z,99.99
2022-09-17T04:43:23.000Z,99.99
2022-09-17T04:44:23.000Z,99.99
2022-09-17T04:45:23.000Z,99.99
2022-09-17T04:46:23.000Z,99.99
2022-09-17T04:47:23.000Z,99.99
2022-09-17T04:48:23.000Z,99.99
2022-09-17T04:49:23.000Z,99.99
2022-09-17T04:50:23.000Z,99.99
2022-09-17T04:51:23.000Z,99.99
2022-09-17T04:52:23.000Z,99.99
2022-09-17T04:53:23.000Z,99.99
2022-09-17T04:54:23.000Z,99.99
2022-09-17T04:55:23.000Z,99.99
2022-09-17T04:56:23.000Z,99.99
2022-09-17T04:57:23.000Z,99.99
2022-09-17T04:58:23.000Z,99.99
2022-09-17T04:59:23.000Z,99.99
2022-09-17T05:00:23.000Z,99.99
2022-09-17T05:01:23.000Z,99.99
2022-09-17T05:02:23.000Z,99.99
2022-09-17T05:03:23.000Z,99.99
2022-09-17T05:04:23.000Z,99.99
2022-09-17T05:05:23.000Z,99.99
2022-09-17T05:06:23.000Z,99.99
2022-09-17T05:07:23.000Z,99.99
2022-09-17T05:08:23.000Z,99.99
2022-09-17T05:09:23.000Z,99.99
2022-09-17T05:10:23.000Z,99.99
2022-09-17T05:11:23.000Z,99.99
2022-09-17T05:12:23.000Z,99.99
2022-09-17T05:13:23.000Z,99.99
2022-09-17T05:14:23.000Z,99.99
2022-09-17T05:15:23.000Z,99.99
2022-09-17T05:16:23.000Z,99.99
2022-09-17T05:17:23.000Z,99.99
2022-09-17T05:18:23.000Z,99.99
2022-09-17T05:19:23.000Z,99.99
2022-09-17T05:20:23.000Z,99.99
2022-09-17T05:21:23.000Z,99.99
2022-09-17T05:22:23.000Z,99.99
2022-09-17T05:23:23.000Z,99.99
2022-09-17T05:24:23.000Z,99.99
2022-09-17T05:25:23.000Z,99.99
2022-09-17T05:26:23.000Z,99.99
2022-09-17T05:27:23.000Z,99.99
2022-09-17T05:28:23.000Z,99.99
2022-09-17T05:29:23.000Z,99.99
2022-09-17T05:30:23.000Z,99.99
2022-09-17T05:31:23.000Z,99.63
2022-09-17T05:32:23.000Z,99.32
2022-09-17T05:33:23.000Z,99.22
2022-09-17T05:34:23.000Z,99.43
2022-09-17T05:35:23.000Z,99.11
2022-09-17T05:36:23.000Z,98.71
2022-09-17T05:37:22.000Z,98.97
2022-09-17T05:38:22.000Z,98.77
2022-09-17T05:39:22.000Z,98.46
2022-09-17T05:40:22.000Z,98.15
2022-09-17T05:41:22.000Z,98.05
2022-09-17T05:42:22.000Z,97.95
2022-09-17T05:43:22.000Z,97.74
2022-09-17T05:44:22.000Z,97.74
2022-09-17T05:45:22.000Z,97.44
2022-09-17T05:46:22.000Z,96.88
2022-09-17T05:47:22.000Z,96.37
2022-09-17T05:48:22.000Z,96.47
2022-09-17T05:49:22.000Z,96.78
2022-09-17T05:50:22.000Z,96.17
2022-09-17T05:51:22.000Z,96.27
2022-09-17T05:52:22.000Z,96.17
2022-09-17T05:53:22.000Z,95.96
2022-09-17T05:54:22.000Z,96.06
2022-09-17T05:55:22.000Z,95.65
2022-09-17T05:56:22.000Z,95.41
2022-09-17T05:57:22.000Z,95.41
2022-09-17T05:58:22.000Z,95.31
2022-09-17T05:59:22.000Z,95.10
2022-09-17T06:00:22.000Z,95.10
2022-09-17T06:01:22.000Z,94.79
2022-09-17T06:02:22.000Z,94.79
2022-09-17T06:03:22.000Z,93.98
2022-09-17T06:04:22.000Z,94.29
2022-09-17T06:05:22.000Z,94.18
2022-09-17T06:06:22.000Z,94.04
2022-09-17T06:07:22.000Z,93.93
2022-09-17T06:08:22.000Z,94.04
2022-09-17T06:09:22.000Z,94.04
2022-09-17T06:10:22.000Z,93.37
2022-09-17T06:11:22.000Z,93.43
2022-09-17T06:12:22.000Z,93.52
2022-09-17T06:13:22.000Z,93.32
2022-09-17T06:14:22.000Z,93.63
2022-09-17T06:15:22.000Z,93.52
2022-09-17T06:16:22.000Z,93.32
2022-09-17T06:17:22.000Z,93.43
2022-09-17T06:18:22.000Z,93.32
2022-09-17T06:19:22.000Z,93.02
2022-09-17T06:20:22.000Z,93.02
2022-09-17T06:21:22.000Z,93.22
2022-09-17T06:22:22.000Z,93.32
2022-09-17T06:23:22.000Z,93.12
2022-09-17T06:24:22.000Z,92.91
2022-09-17T06:25:22.000Z,93.43
2022-09-17T06:26:22.000Z,93.22
2022-09-17T06:27:22.000Z,92.00
2022-09-17T06:28:22.000Z,91.39
2022-09-17T06:29:22.000Z,91.08
2022-09-17T06:30:22.000Z,90.88
2022-09-17T06:31:22.000Z,91.08
2022-09-17T06:32:22.000Z,90.83
2022-09-17T06:33:22.000Z,91.24
2022-09-17T06:34:22.000Z,91.24
2022-09-17T06:35:22.000Z,91.44
2022-09-17T06:36:22.000Z,91.03
2022-09-17T06:37:22.000Z,91.14
2022-09-17T06:38:22.000Z,91.65
2022-09-17T06:39:22.000Z,90.94
2022-09-17T06:40:22.000Z,90.22
2022-09-17T06:41:22.000Z,89.92
2022-09-17T06:42:22.000Z,89.30
2022-09-17T06:43:22.000Z,89.30
2022-09-17T06:44:22.000Z,89.61
2022-09-17T06:45:22.000Z,89.20
2022-09-17T06:46:22.000Z,89.30
2022-09-17T06:47:22.000Z,89.26
2022-09-17T06:48:22.000Z,88.65
2022-09-17T06:49:22.000Z,88.14
2022-09-17T06:50:21.000Z,88.55
2022-09-17T06:51:21.000Z,88.55
2022-09-17T06:52:21.000Z,88.14
2022-09-17T06:53:21.000Z,88.24
2022-09-17T06:54:21.000Z,88.04
2022-09-17T06:55:21.000Z,88.04
2022-09-17T06:56:21.000Z,87.84
2022-09-17T06:57:21.000Z,88.04
2022-09-17T06:58:21.000Z,87.12
2022-09-17T06:59:21.000Z,86.41
2022-09-17T07:00:21.000Z,86.41
2022-09-17T07:01:21.000Z,86.68
2022-09-17T07:02:21.000Z,86.57
2022-09-17T07:03:21.000Z,86.57
2022-09-17T07:04:21.000Z,86.68
2022-09-17T07:05:21.000Z,86.16
2022-09-17T07:06:21.000Z,85.25
2022-09-17T07:07:21.000Z,84.64
2022-09-17T07:08:21.000Z,84.12
2022-09-17T07:09:21.000Z,83.51
2022-09-17T07:10:21.000Z,84.03
2022-09-17T07:11:21.000Z,83.62
2022-09-17T07:12:21.000Z,83.51
2022-09-17T07:13:21.000Z,83.72
2022-09-17T07:14:21.000Z,84.19
2022-09-17T07:15:21.000Z,83.68
2022-09-17T07:16:21.000Z,82.76
2022-09-17T07:17:21.000Z,82.87
2022-09-17T07:18:21.000Z,83.95
2022-09-17T07:19:21.000Z,84.35
2022-09-17T07:20:21.000Z,83.64
2022-09-17T07:21:21.000Z,83.74
2022-09-17T07:22:21.000Z,81.30
2022-09-17T07:23:21.000Z,81.60
2022-09-17T07:24:21.000Z,81.51
2022-09-17T07:25:21.000Z,81.20
2022-09-17T07:26:21.000Z,80.99
2022-09-17T07:27:21.000Z,81.30
2022-09-17T07:28:21.000Z,81.51
2022-09-17T07:29:21.000Z,81.20
2022-09-17T07:30:21.000Z,81.60
2022-09-17T07:31:21.000Z,82.12
2022-09-17T07:32:21.000Z,79.84
2022-09-17T07:33:21.000Z,79.98
2022-09-17T07:34:21.000Z,79.47
2022-09-17T07:35:21.000Z,78.86
2022-09-17T07:36:21.000Z,78.45
2022-09-17T07:37:21.000Z,79.33
2022-09-17T07:38:21.000Z,79.53
2022-09-17T07:39:21.000Z,79.53
2022-09-17T07:40:21.000Z,79.23
2022-09-17T07:41:21.000Z,77.40
2022-09-17T07:42:21.000Z,77.47
2022-09-17T07:43:21.000Z,77.26
2022-09-17T07:44:21.000Z,76.45
2022-09-17T07:45:21.000Z,76.75
2022-09-17T07:46:21.000Z,76.04
2022-09-17T07:47:21.000Z,76.95
2022-09-17T07:48:21.000Z,77.26
2022-09-17T07:49:21.000Z,77.83
2022-09-17T07:50:21.000Z,77.36
2022-09-17T07:51:21.000Z,75.84
2022-09-17T07:52:21.000Z,75.73
2022-09-17T07:53:21.000Z,74.52
2022-09-17T07:54:21.000Z,74.92
2022-09-17T07:55:21.000Z,74.68
2022-09-17T07:56:21.000Z,75.80
2022-09-17T07:57:21.000Z,74.48
2022-09-17T07:58:21.000Z,73.67
2022-09-17T07:59:21.000Z,72.65
2022-09-17T08:00:21.000Z,73.06
2022-09-17T08:01:21.000Z,72.75
2022-09-17T08:02:21.000Z,72.55
2022-09-17T08:03:20.000Z,73.09
2022-09-17T08:04:20.000Z,74.01
2022-09-17T08:05:20.000Z,76.21
2022-09-17T08:06:20.000Z,74.68
2022-09-17T08:07:20.000Z,74.28
2022-09-17T08:08:20.000Z,73.39
2022-09-17T08:09:20.000Z,73.30
2022-09-17T08:10:20.000Z,73.80
2022-09-17T08:11:20.000Z,73.50
2022-09-17T08:12:20.000Z,74.52
2022-09-17T08:13:20.000Z,73.36
2022-09-17T08:14:20.000Z,73.46
2022-09-17T08:15:20.000Z,73.46
2022-09-17T08:16:20.000Z,72.34
2022-09-17T08:17:20.000Z,73.26
2022-09-17T08:18:20.000Z,72.75
2022-09-17T08:19:20.000Z,72.85
2022-09-17T08:20:20.000Z,72.34
2022-09-17T08:21:20.000Z,73.26
2022-09-17T08:22:20.000Z,72.55
2022-09-17T08:23:20.000Z,72.14
2022-09-17T08:24:20.000Z,73.16
2022-09-17T08:25:20.000Z,72.25
2022-09-17T08:26:20.000Z,72.25
2022-09-17T08:27:20.000Z,72.38
2022-09-17T08:28:20.000Z,71.77
2022-09-17T08:29:20.000Z,72.48
2022-09-17T08:30:20.000Z,72.48
2022-09-17T08:31:20.000Z,72.69
2022-09-17T08:32:20.000Z,73.80
2022-09-17T08:33:20.000Z,73.70
2022-09-17T08:34:20.000Z,72.78
2022-09-17T08:35:20.000Z,72.78
2022-09-17T08:36:20.000Z,72.28
2022-09-17T08:37:20.000Z,72.99
2022-09-17T08:38:20.000Z,72.89
2022-09-17T08:39:20.000Z,73.50
2022-09-17T08:40:20.000Z,72.17
2022-09-17T08:41:20.000Z,73.19
2022-09-17T08:42:20.000Z,72.28
2022-09-17T08:43:20.000Z,71.36
2022-09-17T08:44:20.000Z,71.77
2022-09-17T08:45:20.000Z,72.17
2022-09-17T08:46:20.000Z,72.38
2022-09-17T08:47:20.000Z,72.04
2022-09-17T08:48:20.000Z,71.94
2022-09-17T08:49:20.000Z,72.65
2022-09-17T08:50:20.000Z,71.94
2022-09-17T08:51:20.000Z,72.14
2022-09-17T08:52:20.000Z,72.14
2022-09-17T08:53:20.000Z,72.14
2022-09-17T08:54:20.000Z,71.73
2022-09-17T08:55:20.000Z,72.04
2022-09-17T08:56:20.000Z,73.19
2022-09-17T08:57:20.000Z,73.80
2022-09-17T08:58:20.000Z,74.31
2022-09-17T08:59:20.000Z,74.92
2022-09-17T09:00:20.000Z,75.63
2022-09-17T09:01:20.000Z,76.14
2022-09-17T09:02:20.000Z,76.25
2022-09-17T09:03:20.000Z,75.84
2022-09-17T09:04:20.000Z,75.94
2022-09-17T09:05:20.000Z,76.89
2022-09-17T09:06:20.000Z,76.28
2022-09-17T09:07:20.000Z,76.95
2022-09-17T09:08:20.000Z,76.86
2022-09-17T09:09:20.000Z,74.92
2022-09-17T09:10:20.000Z,75.02
2022-09-17T09:11:20.000Z,75.43
2022-09-17T09:12:20.000Z,75.23
2022-09-17T09:13:20.000Z,75.80
2022-09-17T09:14:20.000Z,75.60
2022-09-17T09:15:20.000Z,73.87
2022-09-17T09:16:19.000Z,73.67
2022-09-17T09:17:19.000Z,74.28
2022-09-17T09:18:19.000Z,74.48
2022-09-17T09:19:19.000Z,74.79
2022-09-17T09:20:19.000Z,74.65
2022-09-17T09:21:19.000Z,72.92
2022-09-17T09:22:19.000Z,73.94
2022-09-17T09:23:19.000Z,74.21
2022-09-17T09:24:19.000Z,72.69
2022-09-17T09:25:19.000Z,73.19
2022-09-17T09:26:19.000Z,72.31
2022-09-17T09:27:19.000Z,70.65
2022-09-17T09:28:19.000Z,70.21
2022-09-17T09:29:19.000Z,69.37
2022-09-17T09:30:19.000Z,68.46
2022-09-17T09:31:19.000Z,67.85
2022-09-17T09:32:19.000Z,68.56
2022-09-17T09:33:19.000Z,68.66
2022-09-17T09:34:19.000Z,68.87
2022-09-17T09:35:19.000Z,68.66
2022-09-17T09:36:19.000Z,68.97
2022-09-17T09:37:19.000Z,67.76
2022-09-17T09:38:19.000Z,68.29
2022-09-17T09:38:19.000Z,68.29
2022-09-17T09:39:19.000Z,67.48
2022-09-17T09:39:19.000Z,67.48
2022-09-17T09:40:19.000Z,67.89
2022-09-17T09:40:19.000Z,67.89
2022-09-17T09:41:19.000Z,66.67
2022-09-17T09:41:19.000Z,66.67
2022-09-17T09:42:19.000Z,66.40
2022-09-17T09:42:19.000Z,66.40
2022-09-17T09:43:19.000Z,67.31
2022-09-17T09:44:19.000Z,67.21
2022-09-17T09:45:19.000Z,67.21
2022-09-17T09:46:19.000Z,66.70
2022-09-17T09:47:19.000Z,66.70
2022-09-17T09:48:19.000Z,68.02
2022-09-17T09:49:19.000Z,66.70
2022-09-17T09:50:19.000Z,66.40
2022-09-17T09:51:19.000Z,66.83
2022-09-17T09:52:19.000Z,67.34
2022-09-17T09:53:19.000Z,67.55
2022-09-17T09:54:19.000Z,67.65
2022-09-17T09:55:19.000Z,68.52
2022-09-17T09:56:19.000Z,66.80
2022-09-17T09:57:19.000Z,67.14
2022-09-17T09:58:19.000Z,66.13
2022-09-17T09:59:19.000Z,64.91
2022-09-17T10:00:19.000Z,66.23
2022-09-17T10:01:19.000Z,65.52
2022-09-17T10:02:19.000Z,65.11
2022-09-17T10:03:19.000Z,63.69
2022-09-17T10:04:19.000Z,64.81
2022-09-17T10:05:19.000Z,66.19
2022-09-17T10:06:19.000Z,64.04
2022-09-17T10:07:19.000Z,64.14
2022-09-17T10:08:19.000Z,63.90
2022-09-17T10:09:19.000Z,63.43
2022-09-17T10:10:19.000Z,63.23
2022-09-17T10:11:19.000Z,63.73
2022-09-17T10:12:19.000Z,64.44
2022-09-17T10:13:19.000Z,64.24
2022-09-17T10:14:19.000Z,62.14
2022-09-17T10:15:19.000Z,64.17
2022-09-17T10:16:19.000Z,62.65
2022-09-17T10:17:19.000Z,62.45
2022-09-17T10:18:19.000Z,62.98
2022-09-17T10:19:19.000Z,64.61
2022-09-17T10:20:19.000Z,63.89
2022-09-17T10:21:19.000Z,63.89
2022-09-17T10:22:19.000Z,64.00
2022-09-17T10:23:19.000Z,65.01
2022-09-17T10:24:19.000Z,65.82
2022-09-17T10:25:19.000Z,64.10
2022-09-17T10:26:19.000Z,63.79
2022-09-17T10:27:19.000Z,64.00
2022-09-17T10:28:18.000Z,64.50
2022-09-17T10:29:18.000Z,65.01
2022-09-17T10:30:18.000Z,64.91
2022-09-17T10:31:18.000Z,65.59
2022-09-17T10:32:18.000Z,67.00
2022-09-17T10:33:18.000Z,64.44
2022-09-17T10:34:18.000Z,61.88
2022-09-17T10:35:18.000Z,60.66
2022-09-17T10:36:18.000Z,62.56
2022-09-17T10:37:18.000Z,60.74
2022-09-17T10:38:18.000Z,60.91
2022-09-17T10:39:18.000Z,58.81
2022-09-17T10:40:18.000Z,58.31
2022-09-17T10:41:18.000Z,59.34
2022-09-17T10:42:18.000Z,59.45
2022-09-17T10:43:18.000Z,59.65
2022-09-17T10:44:18.000Z,59.95
2022-09-17T10:45:18.000Z,58.78
2022-09-17T10:46:18.000Z,57.65
2022-09-17T10:47:18.000Z,57.52
2022-09-17T10:48:18.000Z,60.02
2022-09-17T10:49:18.000Z,57.16
2022-09-17T10:50:18.000Z,58.14
2022-09-17T10:51:18.000Z,57.91
2022-09-17T10:52:18.000Z,57.78
2022-09-17T10:53:18.000Z,55.26
2022-09-17T10:54:18.000Z,53.17
2022-09-17T10:55:18.000Z,54.00
2022-09-17T10:56:18.000Z,54.61
2022-09-17T10:57:18.000Z,55.85
2022-09-17T10:58:18.000Z,56.48
2022-09-17T10:59:18.000Z,55.47
2022-09-17T11:00:18.000Z,55.49
2022-09-17T11:01:18.000Z,55.90
2022-09-17T11:02:18.000Z,56.33
2022-09-17T11:03:18.000Z,58.36
2022-09-17T11:04:18.000Z,58.15
2022-09-17T11:05:18.000Z,58.65
2022-09-17T11:06:18.000Z,59.06
2022-09-17T11:07:18.000Z,59.87
2022-09-17T11:08:18.000Z,60.78
2022-09-17T11:09:18.000Z,59.90
2022-09-17T11:10:18.000Z,63.13
2022-09-17T11:11:18.000Z,64.99
2022-09-17T11:12:18.000Z,65.19
2022-09-17T11:13:18.000Z,65.73
2022-09-17T11:14:18.000Z,66.88
2022-09-17T11:15:18.000Z,67.31
2022-09-17T11:16:18.000Z,68.66
2022-09-17T11:17:18.000Z,69.51
2022-09-17T11:18:18.000Z,69.40
2022-09-17T11:19:18.000Z,68.12
2022-09-17T11:20:18.000Z,69.17
2022-09-17T11:21:18.000Z,69.81
2022-09-17T11:22:18.000Z,69.50
2022-09-17T11:23:18.000Z,69.43
2022-09-17T11:24:18.000Z,69.84
2022-09-17T11:25:18.000Z,70.45
2022-09-17T11:26:18.000Z,71.57
2022-09-17T11:27:18.000Z,72.21
2022-09-17T11:28:18.000Z,72.92
2022-09-17T11:29:18.000Z,72.31
2022-09-17T11:30:18.000Z,72.41
2022-09-17T11:31:18.000Z,72.69
2022-09-17T11:32:18.000Z,72.99
2022-09-17T11:33:18.000Z,72.78
2022-09-17T11:34:18.000Z,72.34
2022-09-17T11:35:18.000Z,72.62
2022-09-17T11:36:18.000Z,70.96
2022-09-17T11:37:18.000Z,71.06
2022-09-17T11:38:18.000Z,70.32
2022-09-17T11:39:18.000Z,70.21
2022-09-17T11:40:17.000Z,69.57
2022-09-17T11:41:17.000Z,68.70
2022-09-17T11:42:17.000Z,68.06
2022-09-17T11:43:17.000Z,65.87
2022-09-17T11:44:17.000Z,65.33
2022-09-17T11:45:17.000Z,64.90
2022-09-17T11:46:17.000Z,64.16
2022-09-17T11:47:17.000Z,64.67
2022-09-17T11:48:17.000Z,63.65
2022-09-17T11:49:17.000Z,63.76
2022-09-17T11:50:17.000Z,65.37
2022-09-17T11:51:17.000Z,64.59
2022-09-17T11:52:17.000Z,65.30
2022-09-17T11:53:17.000Z,65.40
2022-09-17T11:54:17.000Z,65.61
2022-09-17T11:55:17.000Z,65.13
2022-09-17T11:56:17.000Z,66.95
2022-09-17T11:57:17.000Z,68.23
2022-09-17T11:58:17.000Z,67.69
2022-09-17T11:59:17.000Z,67.76
2022-09-17T12:00:17.000Z,65.51
2022-09-17T12:01:17.000Z,64.07
2022-09-17T12:02:17.000Z,62.52
2022-09-17T12:03:17.000Z,60.98
2022-09-17T12:04:17.000Z,61.29
2022-09-17T12:05:17.000Z,62.16
2022-09-17T12:06:17.000Z,61.03
2022-09-17T12:07:17.000Z,59.52
2022-09-17T12:08:17.000Z,60.39
2022-09-17T12:09:17.000Z,57.15
2022-09-17T12:10:17.000Z,56.74
2022-09-17T12:11:17.000Z,55.54
2022-09-17T12:12:17.000Z,56.62
2022-09-17T12:13:17.000Z,55.68
2022-09-17T12:13:17.000Z,55.68
2022-09-17T12:14:17.000Z,53.47
2022-09-17T12:14:17.000Z,53.47
2022-09-17T12:15:17.000Z,53.14
2022-09-17T12:15:17.000Z,53.14
2022-09-17T12:16:17.000Z,52.44
2022-09-17T12:16:17.000Z,52.44
2022-09-17T12:17:17.000Z,51.64
2022-09-17T12:17:17.000Z,51.64
2022-09-17T12:18:17.000Z,52.64
2022-09-17T12:19:17.000Z,50.93
2022-09-17T12:20:17.000Z,49.53
2022-09-17T12:21:17.000Z,50.31
2022-09-17T12:22:17.000Z,49.10
2022-09-17T12:23:17.000Z,47.88
2022-09-17T12:24:17.000Z,46.97
2022-09-17T12:25:17.000Z,48.20
2022-09-17T12:26:17.000Z,50.53
2022-09-17T12:27:17.000Z,50.23
2022-09-17T12:28:17.000Z,50.63
2022-09-17T12:29:17.000Z,51.04
2022-09-17T12:30:17.000Z,51.11
2022-09-17T12:31:17.000Z,49.21
2022-09-17T12:32:17.000Z,50.51
2022-09-17T12:33:17.000Z,50.81
2022-09-17T12:34:17.000Z,49.01
2022-09-17T12:35:17.000Z,49.60
2022-09-17T12:36:17.000Z,49.13
2022-09-17T12:37:17.000Z,50.23